createdAt,value
2023-10-12T00:02:22.309Z,100331.00
2023-10-12T00:12:24.573Z,100335.00
2023-10-12T00:22:24.921Z,100333.00
2023-10-12T00:32:24.861Z,100323.00
2023-10-12T00:42:26.727Z,100306.00
2023-10-12T00:52:28.163Z,100296.00
2023-10-12T01:02:30.644Z,100309.00
2023-10-12T01:12:31.740Z,100317.00
2023-10-12T01:22:32.569Z,100333.00
2023-10-12T01:32:34.620Z,100341.00
2023-10-12T01:42:40.796Z,100345.00
2023-10-12T01:52:40.658Z,100351.00
2023-10-12T02:02:43.009Z,100376.00
2023-10-12T02:12:43.157Z,100390.00
2023-10-12T02:22:43.731Z,100415.00
2023-10-12T02:32:47.214Z,100439.00
2023-10-12T02:42:49.988Z,100451.00
2023-10-12T02:52:51.966Z,100472.00
2023-10-12T03:02:54.071Z,100464.00
2023-10-12T03:12:56.527Z,100457.00
2023-10-12T03:23:00.597Z,100441.00
2023-10-12T03:33:03.100Z,100431.00
2023-10-12T03:43:08.309Z,100439.00
2023-10-12T03:53:08.935Z,100435.00
2023-10-12T04:03:14.368Z,100410.00
2023-10-12T04:13:16.970Z,100400.00
2023-10-12T04:23:39.969Z,100392.00
2023-10-12T04:33:44.686Z,100398.00
2023-10-12T04:43:47.454Z,100402.00
2023-10-12T04:53:56.098Z,100441.00
2023-10-12T05:04:08.076Z,100457.00
2023-10-12T05:14:15.290Z,100474.00
2023-10-12T05:24:15.006Z,100478.00
2023-10-12T05:34:28.667Z,100466.00
2023-10-12T05:44:29.027Z,100462.00
2023-10-12T05:54:29.430Z,100474.00
2023-10-12T06:04:29.102Z,100488.00
2023-10-12T06:14:29.086Z,100500.00
2023-10-12T06:24:34.250Z,100507.00
2023-10-12T06:34:35.998Z,100507.00
2023-10-12T06:44:36.512Z,100507.00
2023-10-12T06:54:40.498Z,100521.00
2023-10-12T07:04:45.188Z,100527.00
2023-10-12T07:14:47.399Z,100545.00
2023-10-12T07:24:47.175Z,100549.00
2023-10-12T07:34:50.204Z,100561.00
2023-10-12T07:44:54.874Z,100573.00
2023-10-12T07:54:58.153Z,100577.00
2023-10-12T08:05:00.439Z,100581.00
2023-10-12T08:15:10.041Z,100583.00
2023-10-12T08:25:10.249Z,100585.00
2023-10-12T08:35:15.334Z,100589.00
2023-10-12T08:45:16.293Z,100590.00
2023-10-12T08:55:18.186Z,100594.00
2023-10-12T09:05:23.141Z,100596.00
2023-10-12T09:15:27.502Z,100594.00
2023-10-12T09:25:37.678Z,100594.00
2023-10-12T09:35:41.434Z,100598.00
2023-10-12T09:45:45.989Z,100606.00
2023-10-12T09:55:50.211Z,100604.00
2023-10-12T10:05:53.476Z,100598.00
2023-10-12T10:15:56.721Z,100592.00
2023-10-12T10:25:57.566Z,100594.00
2023-10-12T10:35:57.458Z,100592.00
2023-10-12T10:45:58.070Z,100589.00
2023-10-12T10:56:01.063Z,100589.00
2023-10-12T11:06:01.597Z,100583.00
2023-10-12T11:16:06.410Z,100565.00
2023-10-12T11:26:10.644Z,100549.00
2023-10-12T11:36:12.020Z,100533.00
2023-10-12T11:46:14.499Z,100533.00
2023-10-12T11:56:15.436Z,100513.00
2023-10-12T12:06:19.491Z,100505.00
2023-10-12T12:16:21.286Z,100482.00
2023-10-12T12:26:23.499Z,100488.00
2023-10-12T12:36:23.740Z,100482.00
2023-10-12T12:46:23.717Z,100482.00
2023-10-12T12:56:25.513Z,100486.00
2023-10-12T13:06:25.792Z,100486.00
2023-10-12T13:16:25.818Z,100478.00
2023-10-12T13:26:26.469Z,100486.00
2023-10-12T13:36:28.593Z,100496.00
2023-10-12T13:46:30.660Z,100498.00
2023-10-12T13:56:30.771Z,100490.00
2023-10-12T14:06:32.353Z,100478.00
2023-10-12T14:16:33.890Z,100474.00
2023-10-12T14:26:35.675Z,100472.00
2023-10-12T14:36:36.042Z,100474.00
2023-10-12T14:46:35.888Z,100464.00
2023-10-12T14:56:37.730Z,100462.00
2023-10-12T15:06:37.835Z,100458.00
2023-10-12T15:16:37.896Z,100464.00
2023-10-12T15:26:37.849Z,100468.00
2023-10-12T15:36:37.921Z,100472.00
2023-10-12T15:46:38.506Z,100462.00
2023-10-12T15:56:39.267Z,100458.00
2023-10-12T16:06:38.897Z,100460.00
2023-10-12T16:16:38.972Z,100468.00
2023-10-12T16:26:38.906Z,100468.00
2023-10-12T16:36:38.957Z,100472.00
2023-10-12T16:46:39.095Z,100474.00
2023-10-12T16:56:38.974Z,100478.00
2023-10-12T17:06:39.209Z,100488.00
2023-10-12T17:16:39.272Z,100494.00
2023-10-12T17:26:39.018Z,100504.00
2023-10-12T17:36:39.020Z,100509.00
2023-10-12T17:46:39.247Z,100513.00
2023-10-12T17:56:39.058Z,100519.00
2023-10-12T18:06:39.470Z,100521.00
2023-10-12T18:16:39.257Z,100521.00
2023-10-12T18:26:39.089Z,100521.00
2023-10-12T18:36:39.109Z,100515.00
2023-10-12T18:46:40.277Z,100513.00
2023-10-12T18:56:40.207Z,100515.00
2023-10-12T19:06:40.154Z,100521.00
2023-10-12T19:16:40.747Z,100527.00
2023-10-12T19:26:41.186Z,100533.00
2023-10-12T19:36:41.226Z,100533.00
2023-10-12T19:46:41.943Z,100529.00
2023-10-12T19:56:42.219Z,100527.00
2023-10-12T20:06:43.359Z,100527.00
2023-10-12T20:16:44.250Z,100529.00
2023-10-12T20:26:44.332Z,100531.00
2023-10-12T20:36:44.297Z,100531.00
2023-10-12T20:46:44.366Z,100531.00
2023-10-12T20:56:44.301Z,100523.00
2023-10-12T21:06:44.369Z,100517.00
2023-10-12T21:16:46.274Z,100515.00
2023-10-12T21:26:46.361Z,100515.00
2023-10-12T21:36:48.247Z,100511.00
2023-10-12T21:46:48.409Z,100509.00
2023-10-12T21:56:49.779Z,100494.00
2023-10-12T22:06:52.420Z,100484.00
2023-10-12T22:16:53.030Z,100480.00
2023-10-12T22:26:54.804Z,100478.00
2023-10-12T22:36:54.416Z,100474.00
2023-10-12T22:46:54.752Z,100472.00
2023-10-12T22:56:54.463Z,100474.00
2023-10-12T23:06:54.463Z,100472.00
2023-10-12T23:16:56.518Z,100482.00
2023-10-12T23:26:56.526Z,100482.00
2023-10-12T23:36:59.397Z,100476.00
2023-10-12T23:47:02.947Z,100472.00
2023-10-12T23:57:02.587Z,100470.00
